Ambrie Dupre — WDI2693 — position and weather

sailwx.info

Track history (hours):
 
Tides and Currents Weather Stations Pressure Air Temp Water Temp Dewpoint Dewpoint Depression Visibility Wind Speed Wind Dir Waves Ship Positions

Ambrie Dupre

Owner: Dupre Marine Transportation, LCC, Houma, LA. More information available from US FCC via Universal Licensing System and Coast Guard Vessel Documentation Center.

Last reported at 2017-Oct-16 18:07 UTC. Time now 2017-Oct-18 16:32 UTC.
Position N 29°46' W 095°05'.

Length 23 m; draft 3 m.

Type: . MMSI: 367680760.

Date/timePositionNaut miles runAvg speedWind from/ knotsBaromVisibWave heightAir tempDewpointWater temp
2017-Oct-16 18:07N 29°46' W 095°05'0 0.2
2017-Oct-16 16:21N 29°46' W 095°05'2 0.1
2017-Oct-15 02:30N 29°44' W 095°07'3 1.5
2017-Oct-15 00:18N 29°45' W 095°11'2 4.0
2017-Oct-14 23:54N 29°44' W 095°09'3 3.1
2017-Oct-14 22:47N 29°46' W 095°05'0 0.3
2017-Oct-14 21:54N 29°46' W 095°05'1 0.0
2017-Oct-13 09:16N 29°47' W 095°05'0 0.0
2017-Oct-13 08:40N 29°47' W 095°05'0 0.0
2017-Oct-13 08:22N 29°47' W 095°05'0 0.0
2017-Oct-13 07:52N 29°47' W 095°05'0 0.0
2017-Oct-13 00:05N 29°47' W 095°04'1 5.0
2017-Oct-12 23:52N 29°46' W 095°05'3 1.7
2017-Oct-12 22:09N 29°44' W 095°08'4 0.4
2017-Oct-12 13:12N 29°47' W 095°05'0 0.0
2017-Oct-12 13:00N 29°47' W 095°05'0 0.0
2017-Oct-12 12:30N 29°47' W 095°05'0 0.0
2017-Oct-12 11:21N 29°47' W 095°05'0 0.0
2017-Oct-12 10:57N 29°47' W 095°05'0 0.0
2017-Oct-12 09:00N 29°47' W 095°05'0 0.0
2017-Oct-12 08:21N 29°47' W 095°05'0 0.0
2017-Oct-12 07:03N 29°47' W 095°05'0 0.0
2017-Oct-12 06:51N 29°47' W 095°05'0 0.0
2017-Oct-12 06:30N 29°47' W 095°05'0 0.0
2017-Oct-12 06:00N 29°47' W 095°05'0 0.0
2017-Oct-12 05:27N 29°47' W 095°05'0 0.0
2017-Oct-12 05:00N 29°47' W 095°05'0 0.0
2017-Oct-12 04:28N 29°47' W 095°05'0 0.1
2017-Oct-12 03:25N 29°47' W 095°04'0 0.2
2017-Oct-12 02:51N 29°47' W 095°05'0 0.0
2017-Oct-12 02:30N 29°47' W 095°05'0 0.0
2017-Oct-12 02:00N 29°47' W 095°05'1 0.0
2017-Oct-10 22:55N 29°46' W 095°05'1 0.1
2017-Oct-10 11:05N 29°47' W 095°04'0 0.0
2017-Oct-10 07:49N 29°47' W 095°05'0 0.0
2017-Oct-10 07:28N 29°47' W 095°05'0 0.0
2017-Oct-10 06:55N 29°47' W 095°05'0 0.0
2017-Oct-10 06:19N 29°47' W 095°05'0 0.0
2017-Oct-09 15:20N 29°47' W 095°05'1 0.1
2017-Oct-09 00:56N 29°46' W 095°05'1 0.0
2017-Oct-07 13:59N 29°47' W 095°05'0 0.0
2017-Oct-07 13:26N 29°47' W 095°05'0 0.0
2017-Oct-07 12:59N 29°47' W 095°05'0 0.0
2017-Oct-07 12:26N 29°47' W 095°05'0 0.0
2017-Oct-07 11:59N 29°47' W 095°05'0 0.0
2017-Oct-07 11:20N 29°47' W 095°05'0 0.0
2017-Oct-07 10:59N 29°47' W 095°05'0 0.0
2017-Oct-07 10:29N 29°47' W 095°05'0 0.0
2017-Oct-07 09:56N 29°47' W 095°05'0 0.0
2017-Oct-07 09:23N 29°47' W 095°05'0 0.0
2017-Oct-07 08:59N 29°47' W 095°05'0 0.0
2017-Oct-07 08:11N 29°47' W 095°05'0 0.0
2017-Oct-07 07:53N 29°47' W 095°05'0 0.0
2017-Oct-07 07:08N 29°47' W 095°05'0 0.0
2017-Oct-07 06:56N 29°47' W 095°05'0 0.0
2017-Oct-07 05:05N 29°47' W 095°05'0 0.0
2017-Oct-07 04:53N 29°47' W 095°05'0 0.0
2017-Oct-07 04:05N 29°47' W 095°05'0 0.1
2017-Oct-07 03:56N 29°47' W 095°05'1 0.2
2017-Oct-06 22:27N 29°46' W 095°05'1 0.4
2017-Oct-06 21:08N 29°46' W 095°06'1 0.8
2017-Oct-06 20:24N 29°46' W 095°06'  
Track history (hours):
 
Tides and Currents Weather Stations Pressure Air Temp Water Temp Dewpoint Dewpoint Depression Visibility Wind Speed Wind Dir Waves Ship Positions

Ambrie Dupre

Owner: Dupre Marine Transportation, LCC, Houma, LA. More information available from US FCC via Universal Licensing System and Coast Guard Vessel Documentation Center.

Last reported at 2017-Oct-16 18:07 UTC. Time now 2017-Oct-18 16:32 UTC.
Position N 29°46' W 095°05'.

Length 23 m; draft 3 m.

Type: . MMSI: 367680760.

Date/timePositionNaut miles runAvg speedWind from/ knotsBaromVisibWave heightAir tempDewpointWater temp
2017-Oct-16 18:07N 29°46' W 095°05'0 0.2
2017-Oct-16 16:21N 29°46' W 095°05'2 0.1
2017-Oct-15 02:30N 29°44' W 095°07'3 1.5
2017-Oct-15 00:18N 29°45' W 095°11'2 4.0
2017-Oct-14 23:54N 29°44' W 095°09'3 3.1
2017-Oct-14 22:47N 29°46' W 095°05'0 0.3
2017-Oct-14 21:54N 29°46' W 095°05'1 0.0
2017-Oct-13 09:16N 29°47' W 095°05'0 0.0
2017-Oct-13 08:40N 29°47' W 095°05'0 0.0
2017-Oct-13 08:22N 29°47' W 095°05'0 0.0
2017-Oct-13 07:52N 29°47' W 095°05'0 0.0
2017-Oct-13 00:05N 29°47' W 095°04'1 5.0
2017-Oct-12 23:52N 29°46' W 095°05'3 1.7
2017-Oct-12 22:09N 29°44' W 095°08'4 0.4
2017-Oct-12 13:12N 29°47' W 095°05'0 0.0
2017-Oct-12 13:00N 29°47' W 095°05'0 0.0
2017-Oct-12 12:30N 29°47' W 095°05'0 0.0
2017-Oct-12 11:21N 29°47' W 095°05'0 0.0
2017-Oct-12 10:57N 29°47' W 095°05'0 0.0
2017-Oct-12 09:00N 29°47' W 095°05'0 0.0
2017-Oct-12 08:21N 29°47' W 095°05'0 0.0
2017-Oct-12 07:03N 29°47' W 095°05'0 0.0
2017-Oct-12 06:51N 29°47' W 095°05'0 0.0
2017-Oct-12 06:30N 29°47' W 095°05'0 0.0
2017-Oct-12 06:00N 29°47' W 095°05'0 0.0
2017-Oct-12 05:27N 29°47' W 095°05'0 0.0
2017-Oct-12 05:00N 29°47' W 095°05'0 0.0
2017-Oct-12 04:28N 29°47' W 095°05'0 0.1
2017-Oct-12 03:25N 29°47' W 095°04'0 0.2
2017-Oct-12 02:51N 29°47' W 095°05'0 0.0
2017-Oct-12 02:30N 29°47' W 095°05'0 0.0
2017-Oct-12 02:00N 29°47' W 095°05'1 0.0
2017-Oct-10 22:55N 29°46' W 095°05'1 0.1
2017-Oct-10 11:05N 29°47' W 095°04'0 0.0
2017-Oct-10 07:49N 29°47' W 095°05'0 0.0
2017-Oct-10 07:28N 29°47' W 095°05'0 0.0
2017-Oct-10 06:55N 29°47' W 095°05'0 0.0
2017-Oct-10 06:19N 29°47' W 095°05'0 0.0
2017-Oct-09 15:20N 29°47' W 095°05'1 0.1
2017-Oct-09 00:56N 29°46' W 095°05'1 0.0
2017-Oct-07 13:59N 29°47' W 095°05'0 0.0
2017-Oct-07 13:26N 29°47' W 095°05'0 0.0
2017-Oct-07 12:59N 29°47' W 095°05'0 0.0
2017-Oct-07 12:26N 29°47' W 095°05'0 0.0
2017-Oct-07 11:59N 29°47' W 095°05'0 0.0
2017-Oct-07 11:20N 29°47' W 095°05'0 0.0
2017-Oct-07 10:59N 29°47' W 095°05'0 0.0
2017-Oct-07 10:29N 29°47' W 095°05'0 0.0
2017-Oct-07 09:56N 29°47' W 095°05'0 0.0
2017-Oct-07 09:23N 29°47' W 095°05'0 0.0
2017-Oct-07 08:59N 29°47' W 095°05'0 0.0
2017-Oct-07 08:11N 29°47' W 095°05'0 0.0
2017-Oct-07 07:53N 29°47' W 095°05'0 0.0
2017-Oct-07 07:08N 29°47' W 095°05'0 0.0
2017-Oct-07 06:56N 29°47' W 095°05'0 0.0
2017-Oct-07 05:05N 29°47' W 095°05'0 0.0
2017-Oct-07 04:53N 29°47' W 095°05'0 0.0
2017-Oct-07 04:05N 29°47' W 095°05'0 0.1
2017-Oct-07 03:56N 29°47' W 095°05'1 0.2
2017-Oct-06 22:27N 29°46' W 095°05'1 0.4
2017-Oct-06 21:08N 29°46' W 095°06'1 0.8
2017-Oct-06 20:24N 29°46' W 095°06'  

Dump ship's entire track history